createdAt,value
2023-03-03T00:01:37.190Z,1.07
2023-03-03T00:04:06.396Z,0.99
2023-03-03T00:06:35.176Z,0.76
2023-03-03T00:09:03.834Z,0.79
2023-03-03T00:11:33.523Z,0.82
2023-03-03T00:14:03.578Z,0.83
2023-03-03T00:16:37.050Z,0.85
2023-03-03T00:19:14.710Z,0.87
2023-03-03T00:21:48.135Z,0.97
2023-03-03T00:24:23.239Z,0.89
2023-03-03T00:26:55.896Z,0.81
2023-03-03T00:29:37.346Z,0.73
2023-03-03T00:32:24.333Z,0.87
2023-03-03T00:34:54.506Z,0.81
2023-03-03T00:37:31.800Z,0.74
2023-03-03T00:40:22.153Z,0.64
2023-03-03T00:42:53.519Z,0.64
2023-03-03T00:45:41.834Z,0.58
2023-03-03T00:48:24.447Z,0.49
2023-03-03T00:50:55.075Z,0.36
2023-03-03T00:53:25.879Z,0.52
2023-03-03T00:55:55.330Z,0.52
2023-03-03T00:58:25.627Z,0.68
2023-03-03T01:00:59.113Z,0.61
2023-03-03T01:03:28.673Z,0.64
2023-03-03T01:05:57.585Z,0.56
2023-03-03T01:08:27.402Z,0.58
2023-03-03T01:10:58.946Z,0.42
2023-03-03T01:13:31.349Z,0.51
2023-03-03T01:16:02.706Z,0.38
2023-03-03T01:18:32.799Z,0.54
2023-03-03T01:21:02.588Z,0.59
2023-03-03T01:23:31.624Z,0.57
2023-03-03T01:26:00.702Z,0.55
2023-03-03T01:28:29.586Z,0.66
2023-03-03T01:31:04.421Z,0.67
2023-03-03T01:33:32.978Z,0.67
2023-03-03T01:36:02.168Z,0.69
2023-03-03T01:38:31.240Z,0.68
2023-03-03T01:41:01.678Z,0.62
2023-03-03T01:43:31.812Z,0.63
2023-03-03T01:46:36.618Z,0.68
2023-03-03T01:49:07.997Z,0.64
2023-03-03T01:51:40.398Z,0.48
2023-03-03T01:54:15.246Z,0.53
2023-03-03T01:56:45.598Z,0.50
2023-03-03T01:59:19.586Z,0.43
2023-03-03T02:01:50.176Z,0.34
2023-03-03T02:04:22.087Z,0.34
2023-03-03T02:06:58.233Z,0.11
2023-03-03T02:09:35.052Z,0.19
2023-03-03T02:12:09.055Z,0.08
2023-03-03T02:14:37.668Z,0.17
2023-03-03T02:17:10.883Z,0.01
2023-03-03T02:19:49.396Z,0.06
2023-03-03T02:22:23.742Z,-0.06
2023-03-03T02:24:57.565Z,-0.05
2023-03-03T02:27:29.760Z,-0.08
2023-03-03T02:29:58.938Z,-0.09
2023-03-03T02:32:27.700Z,-0.15
2023-03-03T02:34:56.412Z,-0.22
2023-03-03T02:37:25.530Z,-0.29
2023-03-03T02:39:54.617Z,-0.42
2023-03-03T02:42:29.640Z,-0.44
2023-03-03T02:44:58.240Z,-0.42
2023-03-03T02:47:26.915Z,-0.42
2023-03-03T02:49:55.812Z,-0.41
2023-03-03T02:52:24.578Z,-0.42
2023-03-03T02:54:53.173Z,-0.47
2023-03-03T02:57:21.701Z,-0.54
2023-03-03T02:59:51.769Z,-0.60
2023-03-03T03:02:20.919Z,-0.63
2023-03-03T03:04:49.768Z,-0.79
2023-03-03T03:07:18.857Z,-0.67
2023-03-03T03:09:48.301Z,-0.69
2023-03-03T03:12:19.569Z,-0.59
2023-03-03T03:14:48.318Z,-0.72
2023-03-03T03:17:18.965Z,-0.66
2023-03-03T03:19:47.533Z,-0.69
2023-03-03T03:22:17.064Z,-0.77
2023-03-03T03:24:46.205Z,-0.78
2023-03-03T03:27:14.471Z,-0.80
2023-03-03T03:29:43.635Z,-0.87
2023-03-03T03:32:13.452Z,-0.79
2023-03-03T03:34:43.808Z,-0.68
2023-03-03T03:37:12.562Z,-0.73
2023-03-03T03:39:41.176Z,-0.49
2023-03-03T03:42:09.672Z,-0.48
2023-03-03T03:44:38.676Z,-0.56
2023-03-03T03:47:07.032Z,-0.62
2023-03-03T03:49:35.933Z,-0.69
2023-03-03T03:52:06.692Z,-0.66
2023-03-03T03:54:35.588Z,-0.79
2023-03-03T03:57:04.053Z,-0.81
2023-03-03T03:59:32.376Z,-0.69
2023-03-03T04:02:02.917Z,-0.74
2023-03-03T04:04:31.783Z,-0.68
2023-03-03T04:07:00.940Z,-0.74
2023-03-03T04:09:31.389Z,-0.85
2023-03-03T04:12:00.269Z,-0.81
2023-03-03T04:14:29.209Z,-0.93
2023-03-03T04:16:58.000Z,-0.87
2023-03-03T04:19:26.884Z,-0.94
2023-03-03T04:21:55.970Z,-0.90
2023-03-03T04:24:25.063Z,-1.04
2023-03-03T04:26:58.049Z,-1.19
2023-03-03T04:29:26.475Z,-1.19
2023-03-03T04:31:56.105Z,-1.24
2023-03-03T04:34:25.110Z,-1.28
2023-03-03T04:36:53.939Z,-1.34
2023-03-03T04:39:23.019Z,-1.38
2023-03-03T04:41:51.849Z,-1.46
2023-03-03T04:44:22.256Z,-1.43
2023-03-03T04:46:50.972Z,-1.51
2023-03-03T04:49:19.748Z,-1.46
2023-03-03T04:51:48.347Z,-1.53
2023-03-03T04:54:18.298Z,-1.48
2023-03-03T04:56:47.096Z,-1.52
2023-03-03T04:59:16.345Z,-1.53
2023-03-03T05:01:47.233Z,-1.69
2023-03-03T05:04:15.878Z,-1.55
2023-03-03T05:06:44.866Z,-1.58
2023-03-03T05:09:13.720Z,-1.58
2023-03-03T05:11:43.676Z,-1.61
2023-03-03T05:14:12.867Z,-1.60
2023-03-03T05:16:41.678Z,-1.67
2023-03-03T05:19:12.635Z,-1.68
2023-03-03T05:21:43.558Z,-1.58
2023-03-03T05:24:13.169Z,-1.57
2023-03-03T05:26:42.813Z,-1.42
2023-03-03T05:29:11.998Z,-1.45
2023-03-03T05:31:40.751Z,-1.51
2023-03-03T05:34:11.326Z,-1.27
2023-03-03T05:36:39.894Z,-1.31
2023-03-03T05:39:09.115Z,-1.28
2023-03-03T05:41:39.160Z,-1.32
2023-03-03T05:44:09.438Z,-1.48
2023-03-03T05:46:37.909Z,-1.39
2023-03-03T05:49:07.109Z,-1.33
2023-03-03T05:51:37.859Z,-1.29
2023-03-03T05:54:06.532Z,-1.38
2023-03-03T05:56:35.268Z,-1.40
2023-03-03T05:59:05.313Z,-1.32
2023-03-03T06:01:34.060Z,-1.31
2023-03-03T06:04:02.501Z,-1.32
2023-03-03T06:06:31.266Z,-1.37
2023-03-03T06:09:05.368Z,-1.26
2023-03-03T06:11:34.652Z,-1.24
2023-03-03T06:14:03.467Z,-1.33
2023-03-03T06:16:32.115Z,-1.38
2023-03-03T06:19:01.614Z,-1.33
2023-03-03T06:21:30.667Z,-1.29
2023-03-03T06:24:01.810Z,-1.35
2023-03-03T06:26:30.462Z,-1.32
2023-03-03T06:28:59.098Z,-1.14
2023-03-03T06:31:28.346Z,-1.08
2023-03-03T06:33:57.283Z,-0.94
2023-03-03T06:36:27.298Z,-0.90
2023-03-03T06:38:56.304Z,-0.79
2023-03-03T06:41:26.879Z,-0.67
2023-03-03T06:43:56.916Z,-0.53
2023-03-03T06:46:25.333Z,-0.47
2023-03-03T06:48:54.924Z,-0.37
2023-03-03T06:51:28.404Z,-0.30
2023-03-03T06:53:59.985Z,-0.17
2023-03-03T06:56:30.913Z,-0.09
2023-03-03T06:59:03.073Z,-0.07
2023-03-03T07:01:36.956Z,-0.11
2023-03-03T07:04:08.624Z,0.16
2023-03-03T07:06:37.668Z,0.17
2023-03-03T07:09:13.848Z,0.07
2023-03-03T07:11:46.520Z,0.16
2023-03-03T07:14:19.811Z,0.43
2023-03-03T07:16:48.327Z,0.28
2023-03-03T07:19:22.945Z,0.28
2023-03-03T07:21:53.926Z,0.33
2023-03-03T07:24:29.470Z,-0.02
2023-03-03T07:27:07.959Z,0.11
2023-03-03T07:29:38.087Z,0.04
2023-03-03T07:32:26.966Z,0.08
2023-03-03T07:34:58.174Z,0.03
2023-03-03T07:37:36.616Z,-0.05
2023-03-03T07:40:27.567Z,-0.06
2023-03-03T07:42:58.306Z,-0.11
2023-03-03T07:45:30.393Z,-0.03
2023-03-03T07:48:06.451Z,-0.13
2023-03-03T07:50:36.499Z,-0.14
2023-03-03T07:53:06.958Z,-0.15
2023-03-03T07:55:39.354Z,-0.09
2023-03-03T07:58:23.307Z,0.02
2023-03-03T08:01:24.210Z,-0.13
2023-03-03T08:03:53.671Z,-0.19
2023-03-03T08:06:43.403Z,-0.07
2023-03-03T08:09:39.107Z,0.12
2023-03-03T08:12:35.324Z,0.27
2023-03-03T08:15:26.752Z,0.37
2023-03-03T08:17:57.150Z,0.47
2023-03-03T08:20:48.232Z,0.51
2023-03-03T08:23:18.107Z,0.58
2023-03-03T08:25:47.297Z,0.67
2023-03-03T08:28:17.380Z,0.90
2023-03-03T08:30:47.993Z,1.01
2023-03-03T08:33:17.320Z,1.03
2023-03-03T08:35:46.517Z,1.15
2023-03-03T08:38:17.576Z,1.14
2023-03-03T08:40:46.902Z,0.89
2023-03-03T08:43:17.590Z,1.01
2023-03-03T08:45:49.797Z,1.10
2023-03-03T08:48:21.033Z,1.19
2023-03-03T08:50:50.448Z,1.22
2023-03-03T08:53:21.054Z,1.00
2023-03-03T08:55:52.310Z,1.14
2023-03-03T08:58:33.455Z,1.22
2023-03-03T09:01:05.920Z,1.28
2023-03-03T09:03:35.015Z,1.36
2023-03-03T09:06:04.168Z,1.34
2023-03-03T09:08:32.868Z,1.49
2023-03-03T09:11:02.520Z,1.63
2023-03-03T09:13:32.161Z,1.74
2023-03-03T09:16:10.012Z,1.85
2023-03-03T09:18:43.660Z,2.04
2023-03-03T09:21:25.375Z,2.27
2023-03-03T09:23:57.559Z,2.38
2023-03-03T09:26:32.690Z,2.50
2023-03-03T09:29:19.601Z,2.65
2023-03-03T09:31:52.404Z,2.70
2023-03-03T09:34:25.994Z,2.76
2023-03-03T09:36:55.794Z,2.96
2023-03-03T09:39:26.758Z,3.09
2023-03-03T09:42:33.885Z,3.18
2023-03-03T09:45:28.518Z,3.55
2023-03-03T09:48:12.322Z,3.66
2023-03-03T09:51:00.321Z,3.77
2023-03-03T09:53:44.400Z,3.70
2023-03-03T09:56:21.336Z,3.87
2023-03-03T09:59:01.741Z,3.99
2023-03-03T10:01:52.451Z,4.01
2023-03-03T10:04:45.534Z,4.19
2023-03-03T10:07:35.239Z,4.29
2023-03-03T10:10:16.907Z,4.18
2023-03-03T10:12:54.132Z,4.38
2023-03-03T10:15:33.128Z,4.50
2023-03-03T10:18:10.835Z,4.61
2023-03-03T10:20:51.948Z,4.46
2023-03-03T10:23:35.425Z,4.69
2023-03-03T10:26:18.651Z,4.44
2023-03-03T10:29:23.438Z,4.59
2023-03-03T10:32:03.814Z,4.67
2023-03-03T10:34:54.248Z,4.81
2023-03-03T10:37:31.293Z,4.84
2023-03-03T10:40:23.857Z,4.97
2023-03-03T10:43:29.717Z,5.03
2023-03-03T10:46:27.226Z,5.10
2023-03-03T10:49:23.230Z,4.97
2023-03-03T10:52:02.526Z,5.11
2023-03-03T10:54:53.421Z,5.23
2023-03-03T10:57:30.263Z,5.27
2023-03-03T11:00:16.389Z,5.28
2023-03-03T11:02:54.961Z,5.47
2023-03-03T11:05:35.123Z,5.70
2023-03-03T11:08:07.540Z,5.78
2023-03-03T11:10:53.881Z,5.83
2023-03-03T11:13:32.554Z,5.73
2023-03-03T11:16:17.815Z,5.89
2023-03-03T11:19:02.367Z,5.85
2023-03-03T11:21:36.484Z,5.78
2023-03-03T11:24:13.529Z,5.97
2023-03-03T11:26:55.893Z,6.03
2023-03-03T11:29:37.678Z,5.96
2023-03-03T11:32:21.290Z,6.08
2023-03-03T11:34:59.765Z,6.21
2023-03-03T11:37:38.332Z,5.97
2023-03-03T11:40:17.100Z,6.10
2023-03-03T11:42:57.301Z,6.04
2023-03-03T11:45:37.200Z,6.03
2023-03-03T11:48:14.312Z,6.07
2023-03-03T11:50:49.820Z,6.18
2023-03-03T11:53:30.633Z,6.39
2023-03-03T11:56:06.935Z,6.44
2023-03-03T11:58:42.809Z,6.53
2023-03-03T12:01:22.416Z,6.66
2023-03-03T12:03:58.283Z,6.77
2023-03-03T12:06:35.669Z,6.77
2023-03-03T12:09:22.268Z,6.83
2023-03-03T12:11:55.360Z,6.93
2023-03-03T12:14:42.259Z,7.11
2023-03-03T12:17:27.521Z,7.16
2023-03-03T12:20:04.536Z,7.22
2023-03-03T12:22:35.924Z,7.04
2023-03-03T12:25:27.397Z,7.10
2023-03-03T12:28:03.018Z,7.44
2023-03-03T12:31:08.871Z,7.51
2023-03-03T12:33:53.304Z,7.36
2023-03-03T12:36:27.930Z,7.37
2023-03-03T12:39:02.658Z,7.31
2023-03-03T12:41:38.039Z,7.39
2023-03-03T12:44:15.406Z,7.51
2023-03-03T12:46:53.519Z,7.48
2023-03-03T12:49:42.473Z,7.61
2023-03-03T12:52:25.263Z,7.52
2023-03-03T12:55:10.369Z,7.43
2023-03-03T12:57:45.173Z,7.69
2023-03-03T13:00:29.496Z,7.74
2023-03-03T13:03:05.175Z,7.88
2023-03-03T13:05:47.114Z,7.89
2023-03-03T13:08:34.983Z,7.91
2023-03-03T13:11:20.238Z,7.81
2023-03-03T13:13:55.700Z,7.79
2023-03-03T13:16:40.568Z,7.92
2023-03-03T13:19:17.297Z,7.84
2023-03-03T13:21:51.923Z,7.80
2023-03-03T13:24:29.444Z,7.97
2023-03-03T13:27:01.915Z,8.03
2023-03-03T13:29:36.842Z,8.12
2023-03-03T13:32:13.242Z,8.14
2023-03-03T13:34:52.245Z,8.06
2023-03-03T13:37:28.607Z,8.16
2023-03-03T13:40:02.282Z,8.32
2023-03-03T13:42:39.809Z,8.32
2023-03-03T13:45:17.720Z,8.24
2023-03-03T13:47:55.053Z,8.31
2023-03-03T13:50:32.486Z,8.43
2023-03-03T13:53:27.723Z,8.34
2023-03-03T13:56:05.972Z,8.40
2023-03-03T13:58:41.680Z,8.39
2023-03-03T14:01:19.738Z,8.45
2023-03-03T14:04:14.777Z,8.49
2023-03-03T14:06:53.045Z,8.52
2023-03-03T14:09:44.391Z,8.58
2023-03-03T14:12:24.017Z,8.74
2023-03-03T14:15:01.442Z,8.67
2023-03-03T14:17:36.972Z,8.76
2023-03-03T14:20:17.528Z,8.63
2023-03-03T14:22:54.367Z,8.48
2023-03-03T14:25:54.912Z,8.47
2023-03-03T14:28:25.259Z,8.67
2023-03-03T14:30:57.291Z,8.53
2023-03-03T14:33:32.730Z,8.56
2023-03-03T14:36:18.652Z,8.64
2023-03-03T14:38:51.851Z,8.59
2023-03-03T14:41:42.285Z,8.65
2023-03-03T14:44:27.354Z,8.67
2023-03-03T14:47:15.438Z,8.52
2023-03-03T14:49:44.829Z,8.50
2023-03-03T14:52:28.214Z,8.67
2023-03-03T14:55:00.109Z,8.62
2023-03-03T14:57:47.802Z,8.55
2023-03-03T15:00:32.345Z,8.43
2023-03-03T15:03:18.164Z,8.42
2023-03-03T15:05:52.429Z,8.52
2023-03-03T15:08:32.731Z,8.28
2023-03-03T15:11:21.593Z,8.34
2023-03-03T15:13:52.038Z,8.28
2023-03-03T15:16:23.276Z,8.30
2023-03-03T15:19:24.855Z,8.28
2023-03-03T15:22:01.687Z,8.21
2023-03-03T15:24:38.733Z,8.23
2023-03-03T15:27:13.590Z,8.23
2023-03-03T15:29:57.604Z,8.10
2023-03-03T15:32:31.113Z,8.18
2023-03-03T15:35:10.180Z,8.11
2023-03-03T15:37:55.069Z,8.06
2023-03-03T15:40:29.359Z,7.81
2023-03-03T15:43:11.055Z,7.77
2023-03-03T15:45:47.925Z,7.75
2023-03-03T15:48:39.222Z,7.75
2023-03-03T15:51:19.652Z,7.63
2023-03-03T15:54:08.167Z,7.79
2023-03-03T15:56:48.801Z,7.57
2023-03-03T15:59:52.318Z,7.63
2023-03-03T16:02:24.558Z,7.69
2023-03-03T16:05:00.945Z,7.59
2023-03-03T16:07:39.544Z,7.54
2023-03-03T16:10:22.076Z,7.55
2023-03-03T16:13:00.543Z,7.43
2023-03-03T16:15:46.137Z,7.41
2023-03-03T16:18:27.364Z,7.27
2023-03-03T16:21:14.396Z,7.31
2023-03-03T16:23:49.613Z,7.21
2023-03-03T16:26:38.062Z,7.23
2023-03-03T16:29:23.638Z,7.17
2023-03-03T16:31:58.415Z,7.03
2023-03-03T16:34:40.591Z,7.09
2023-03-03T16:37:17.888Z,6.93
2023-03-03T16:39:55.484Z,6.90
2023-03-03T16:42:29.805Z,6.86
2023-03-03T16:45:21.750Z,6.82
2023-03-03T16:48:11.673Z,6.70
2023-03-03T16:50:50.790Z,6.56
2023-03-03T16:53:39.501Z,6.51
2023-03-03T16:56:11.951Z,6.41
2023-03-03T16:59:00.182Z,6.41
2023-03-03T17:01:43.634Z,6.28
2023-03-03T17:04:16.545Z,6.24
2023-03-03T17:06:56.057Z,6.23
2023-03-03T17:09:45.684Z,6.17
2023-03-03T17:12:38.214Z,5.98
2023-03-03T17:15:18.540Z,6.08
2023-03-03T17:17:56.776Z,5.90
2023-03-03T17:20:46.005Z,5.93
2023-03-03T17:23:33.729Z,5.79
2023-03-03T17:26:13.272Z,5.78
2023-03-03T17:28:51.305Z,5.63
2023-03-03T17:31:25.459Z,5.65
2023-03-03T17:34:05.113Z,5.60
2023-03-03T17:36:46.776Z,5.75
2023-03-03T17:39:34.591Z,5.61
2023-03-03T17:42:12.578Z,5.53
2023-03-03T17:44:50.904Z,5.43
2023-03-03T17:47:34.311Z,5.48
2023-03-03T17:50:20.705Z,5.28
2023-03-03T17:53:04.259Z,5.30
2023-03-03T17:55:55.048Z,5.18
2023-03-03T17:59:02.019Z,5.17
2023-03-03T18:01:47.381Z,5.37
2023-03-03T18:04:42.575Z,5.27
2023-03-03T18:07:37.148Z,5.16
2023-03-03T18:10:37.364Z,5.24
2023-03-03T18:13:23.160Z,5.13
2023-03-03T18:16:12.156Z,4.95
2023-03-03T18:19:01.724Z,4.86
2023-03-03T18:21:39.360Z,4.92
2023-03-03T18:24:38.551Z,5.04
2023-03-03T18:27:35.076Z,4.95
2023-03-03T18:30:27.303Z,4.87
2023-03-03T18:33:33.447Z,4.74
2023-03-03T18:36:28.218Z,4.73
2023-03-03T18:38:58.459Z,4.67
2023-03-03T18:41:28.560Z,4.79
2023-03-03T18:44:01.818Z,4.70
2023-03-03T18:46:53.213Z,4.42
2023-03-03T18:49:58.195Z,4.42
2023-03-03T18:52:30.419Z,4.46
2023-03-03T18:55:25.401Z,4.41
2023-03-03T18:58:44.720Z,4.42
2023-03-03T19:01:41.827Z,4.18
2023-03-03T19:04:24.517Z,4.18
2023-03-03T19:07:12.241Z,4.31
2023-03-03T19:09:57.483Z,4.24
2023-03-03T19:12:54.144Z,4.09
2023-03-03T19:15:55.882Z,3.88
2023-03-03T19:18:28.075Z,3.61
2023-03-03T19:21:00.829Z,3.85
2023-03-03T19:23:49.463Z,3.67
2023-03-03T19:26:35.624Z,3.49
2023-03-03T19:29:16.184Z,3.41
2023-03-03T19:31:50.345Z,3.28
2023-03-03T19:34:22.331Z,3.21
2023-03-03T19:37:18.129Z,3.09
2023-03-03T19:40:05.200Z,3.04
2023-03-03T19:42:47.770Z,2.91
2023-03-03T19:45:32.795Z,2.90
2023-03-03T19:48:07.755Z,2.78
2023-03-03T19:50:49.397Z,2.62
2023-03-03T19:53:38.105Z,2.71
2023-03-03T19:56:20.914Z,2.53
2023-03-03T19:59:15.631Z,2.49
2023-03-03T20:01:51.726Z,2.53
2023-03-03T20:04:47.328Z,2.49
2023-03-03T20:07:29.222Z,2.80
2023-03-03T20:10:10.883Z,2.66
2023-03-03T20:12:56.699Z,2.62
2023-03-03T20:15:30.157Z,2.46
2023-03-03T20:18:25.455Z,2.49
2023-03-03T20:21:07.378Z,2.40
2023-03-03T20:23:47.850Z,2.19
2023-03-03T20:26:27.779Z,2.10
2023-03-03T20:29:19.425Z,2.10
2023-03-03T20:31:55.403Z,2.11
2023-03-03T20:34:34.577Z,2.15
2023-03-03T20:37:11.665Z,2.12
2023-03-03T20:39:53.170Z,2.01
2023-03-03T20:42:38.538Z,1.86
2023-03-03T20:45:33.613Z,1.84
2023-03-03T20:48:17.769Z,1.83
2023-03-03T20:50:55.541Z,1.75
2023-03-03T20:53:33.666Z,1.67
2023-03-03T20:56:07.537Z,1.57
2023-03-03T20:58:48.149Z,1.61
2023-03-03T21:01:24.745Z,1.46
2023-03-03T21:03:56.710Z,1.59
2023-03-03T21:06:39.018Z,1.55
2023-03-03T21:09:09.292Z,1.59
2023-03-03T21:11:45.475Z,1.56
2023-03-03T21:14:19.392Z,1.48
2023-03-03T21:16:48.396Z,1.43
2023-03-03T21:19:27.265Z,1.35
2023-03-03T21:21:57.025Z,1.32
2023-03-03T21:24:54.448Z,1.26
2023-03-03T21:27:28.824Z,1.22
2023-03-03T21:30:07.564Z,1.06
2023-03-03T21:32:40.813Z,1.18
2023-03-03T21:35:11.732Z,1.07
2023-03-03T21:37:48.852Z,0.98
2023-03-03T21:40:21.096Z,0.90
2023-03-03T21:42:50.882Z,0.83
2023-03-03T21:45:26.122Z,0.92
2023-03-03T21:47:57.014Z,0.86
2023-03-03T21:50:26.085Z,0.79
2023-03-03T21:52:56.736Z,0.65
2023-03-03T21:55:26.754Z,0.67
2023-03-03T21:57:55.767Z,0.60
2023-03-03T22:00:25.966Z,0.59
2023-03-03T22:02:55.403Z,0.54
2023-03-03T22:05:24.089Z,0.53
2023-03-03T22:07:52.456Z,0.39
2023-03-03T22:10:21.586Z,0.42
2023-03-03T22:12:50.663Z,0.38
2023-03-03T22:15:19.199Z,0.52
2023-03-03T22:17:49.621Z,0.55
2023-03-03T22:20:18.103Z,0.64
2023-03-03T22:22:46.773Z,0.55
2023-03-03T22:25:15.352Z,0.46
2023-03-03T22:27:43.838Z,0.37
2023-03-03T22:30:13.464Z,0.38
2023-03-03T22:32:42.075Z,0.37
2023-03-03T22:35:12.395Z,0.28
2023-03-03T22:37:40.723Z,0.31
2023-03-03T22:40:10.207Z,0.24
2023-03-03T22:42:38.486Z,0.22
2023-03-03T22:45:07.893Z,0.09
2023-03-03T22:47:37.120Z,0.09
2023-03-03T22:50:07.523Z,0.01
2023-03-03T22:52:37.209Z,-0.06
2023-03-03T22:55:06.224Z,-0.03
2023-03-03T22:57:36.173Z,-0.04
2023-03-03T23:00:07.115Z,-0.08
2023-03-03T23:02:36.707Z,-0.11
2023-03-03T23:05:08.872Z,-0.15
2023-03-03T23:07:42.751Z,-0.21
2023-03-03T23:10:12.702Z,-0.24
2023-03-03T23:12:41.536Z,-0.26
2023-03-03T23:15:14.183Z,-0.29
2023-03-03T23:17:44.236Z,-0.34
2023-03-03T23:20:15.249Z,-0.42
2023-03-03T23:22:46.056Z,-0.40
2023-03-03T23:25:15.973Z,-0.45
2023-03-03T23:27:45.380Z,-0.47
2023-03-03T23:30:16.039Z,-0.51
2023-03-03T23:32:46.995Z,-0.47
2023-03-03T23:35:16.309Z,-0.48
2023-03-03T23:37:46.321Z,-0.59
2023-03-03T23:40:16.407Z,-0.61
2023-03-03T23:42:45.597Z,-0.66
2023-03-03T23:45:14.625Z,-0.58
2023-03-03T23:47:43.605Z,-0.74
2023-03-03T23:50:14.148Z,-0.68
2023-03-03T23:52:42.532Z,-0.75
2023-03-03T23:55:12.921Z,-0.75
2023-03-03T23:57:41.678Z,-0.77
